Time;durP1;ratioP1;P1;durP2;ratioP2;P2;SDS_P1;SDS_P2;PMS_P1;PMS_P2;Temp;Humidity;BMP_temperature;BMP_pressure;BME280_temperature;BME280_humidity;BME280_pressure;Samples;Min_cycle;Max_cycle;Signal;HPM_P1;HPM_P2
2022/11/26 00:00:46;;;;;;;;;9.00;7.75;;;;;21.62;47.58;102641.66;5037004;28;47316;-78
2022/11/26 00:03:12;;;;;;;;;6.50;5.50;;;;;21.62;47.57;102644.28;5037515;28;45320;-78
2022/11/26 00:05:41;;;;;;;;;7.25;7.25;;;;;21.56;47.72;102634.22;5037657;28;45471;-78
2022/11/26 00:08:31;;;;;;;;;6.67;6.67;;;;;21.61;47.26;102647.91;5037620;28;45253;-78
2022/11/26 00:10:57;;;;;;;;;12.50;8.50;;;;;21.60;47.41;102640.91;5037337;28;45349;-78
2022/11/26 00:13:27;;;;;;;;;7.00;7.00;;;;;21.60;47.45;102638.25;5037355;28;45411;-78
2022/11/26 00:15:53;;;;;;;;;8.50;8.50;;;;;21.60;47.62;102640.91;5037207;28;45327;-78
2022/11/26 00:18:18;;;;;;;;;9.00;7.67;;;;;21.59;47.60;102642.75;5037244;28;45434;-78
2022/11/26 00:20:48;;;;;;;;;8.00;7.50;;;;;21.32;47.10;102600.94;5037168;28;47226;-79
2022/11/26 00:23:21;;;;;;;;;9.75;7.50;;;;;21.58;47.20;102643.72;5037219;28;45307;-78
2022/11/26 00:25:53;;;;;;;;;7.67;7.00;;;;;21.58;47.35;102637.56;5037179;28;45414;-78
2022/11/26 00:28:25;;;;;;;;;8.75;6.50;;;;;21.58;47.27;102637.56;5036828;28;45378;-78
2022/11/26 00:30:51;;;;;;;;;15.25;11.00;;;;;21.55;47.72;102628.06;5036996;28;45346;-78
2022/11/26 00:33:17;;;;;;;;;10.50;7.50;;;;;21.56;47.04;102635.06;5036998;28;45466;-78
2022/11/26 00:35:45;;;;;;;;;12.00;9.50;;;;;21.57;47.42;102639.38;5036301;28;45419;-77
2022/11/26 00:38:16;;;;;;;;;7.00;7.00;;;;;21.56;47.27;102639.50;5037143;28;45339;-78
2022/11/26 00:40:41;;;;;;;;;8.50;6.00;;;;;21.56;47.21;102639.50;5036652;28;46132;-78
2022/11/26 00:43:15;;;;;;;;;9.50;9.25;;;;;21.58;46.91;102640.22;5036570;28;45412;-78
2022/11/26 00:45:40;;;;;;;;;12.00;9.00;;;;;21.49;47.42;102628.63;5036962;28;45387;-78
2022/11/26 00:48:05;;;;;;;;;9.25;9.25;;;;;21.51;47.16;102637.28;5036721;28;45389;-78
2022/11/26 00:50:36;;;;;;;;;11.25;8.50;;;;;21.57;47.09;102652.63;5036785;28;46091;-78
2022/11/26 00:53:03;;;;;;;;;9.50;8.00;;;;;21.58;47.37;102650.81;5036774;28;45443;-78
2022/11/26 00:55:35;;;;;;;;;11.50;8.25;;;;;21.57;46.95;102647.31;5036627;28;45596;-78
2022/11/26 00:58:01;;;;;;;;;7.00;7.00;;;;;21.57;47.23;102647.31;5036149;28;45495;-77
2022/11/26 01:00:29;;;;;;;;;9.50;9.50;;;;;21.55;46.98;102643.97;5036276;28;46097;-78
2022/11/26 01:02:55;;;;;;;;;8.75;8.25;;;;;21.57;47.35;102654.44;5036502;28;46125;-78
2022/11/26 01:05:22;;;;;;;;;9.00;9.00;;;;;21.57;47.15;102649.16;5036560;28;45286;-78
2022/11/26 01:07:49;;;;;;;;;8.50;8.50;;;;;21.49;47.12;102644.50;5036361;28;45569;-77
2022/11/26 01:10:21;;;;;;;;;11.00;8.25;;;;;21.54;47.26;102646.75;5036276;28;46346;-78
2022/11/26 01:12:47;;;;;;;;;9.25;8.00;;;;;21.43;47.18;102627.34;5036029;28;45494;-78
2022/11/26 01:15:13;;;;;;;;;13.50;11.00;;;;;21.55;46.71;102645.78;5036372;28;45421;-78
2022/11/26 01:17:39;;;;;;;;;8.75;8.00;;;;;21.55;47.32;102637.81;5036529;28;45390;-78
2022/11/26 01:20:20;;;;;;;;;8.75;8.75;;;;;21.56;46.88;102644.81;5036223;28;45366;-78
2022/11/26 01:22:45;;;;;;;;;10.00;9.00;;;;;21.43;47.24;102622.03;5036203;28;45366;-78
2022/11/26 01:25:10;;;;;;;;;9.75;8.25;;;;;21.56;46.66;102642.16;5036267;28;45342;-79
2022/11/26 01:27:36;;;;;;;;;10.25;8.25;;;;;21.47;47.32;102631.38;5036017;28;45510;-78
2022/11/26 01:30:01;;;;;;;;;10.50;7.75;;;;;21.48;46.86;102630.44;5035631;28;58240;-77
2022/11/26 01:32:26;;;;;;;;;10.00;9.25;;;;;21.53;47.07;102637.97;5036199;28;45354;-78
2022/11/26 01:34:52;;;;;;;;;8.50;8.50;;;;;21.48;46.49;102632.22;5036148;28;45495;-78
2022/11/26 01:37:17;;;;;;;;;7.00;6.25;;;;;21.54;46.79;102633.53;5035819;28;50454;-78
2022/11/26 01:39:42;;;;;;;;;9.25;8.00;;;;;21.52;47.11;102637.13;5036054;28;45898;-78
2022/11/26 01:42:30;;;;;;;;;7.50;7.50;;;;;21.49;47.10;102634.75;5035429;28;47640;-79
2022/11/26 01:44:55;;;;;;;;;11.75;9.75;;;;;21.47;46.73;102639.34;5036000;28;45350;-78
2022/11/26 01:47:28;;;;;;;;;7.25;5.25;;;;;21.52;46.77;102641.56;5016803;28;45621;-78
2022/11/26 01:50:42;;;;;;;;;7.50;5.75;;;;;21.35;46.64;102617.41;5035881;28;46314;-78
2022/11/26 01:53:27;;;;;;;;;8.50;8.50;;;;;21.44;47.37;102631.69;5031437;28;45348;-79
2022/11/26 01:56:10;;;;;;;;;8.75;7.50;;;;;21.46;46.56;102642.13;5035433;28;45349;-78
2022/11/26 01:58:43;;;;;;;;;8.00;7.50;;;;;21.36;47.00;102628.84;5035377;28;45414;-78
2022/11/26 02:01:08;;;;;;;;;9.00;7.75;;;;;21.47;46.91;102644.63;5035639;28;46401;-79
2022/11/26 02:03:46;;;;;;;;;7.50;7.50;;;;;21.47;46.64;102654.38;5035749;28;45522;-78
2022/11/26 02:06:18;;;;;;;;;9.75;8.50;;;;;21.47;46.76;102651.72;5035816;28;45371;-78
2022/11/26 02:08:44;;;;;;;;;10.25;10.25;;;;;21.03;47.03;102583.94;5035613;28;45583;-78
2022/11/26 02:11:23;;;;;;;;;5.00;4.00;;;;;21.39;46.64;102642.66;5035090;28;46380;-78
2022/11/26 02:13:53;;;;;;;;;11.00;8.75;;;;;21.35;46.52;102638.59;5035413;28;45343;-78
2022/11/26 02:16:18;;;;;;;;;8.50;8.25;;;;;21.45;46.61;102654.53;5035544;28;45399;-78
2022/11/26 02:18:54;;;;;;;;;11.00;9.00;;;;;21.44;46.54;102658.16;5035542;28;45398;-78
2022/11/26 02:21:27;;;;;;;;;8.75;8.00;;;;;21.43;46.95;102664.41;5035352;28;47075;-78
2022/11/26 02:24:11;;;;;;;;;7.75;7.75;;;;;21.42;46.86;102657.44;5035361;28;45499;-78
2022/11/26 02:27:15;;;;;;;;;9.50;7.25;;;;;;;;5035153;28;45300;-78
2022/11/26 02:29:57;;;;;;;;;8.75;8.25;;;;;21.38;46.49;102645.44;4934979;28;45466;-78
2022/11/26 02:32:47;;;;;;;;;9.25;8.00;;;;;21.36;46.44;102642.09;4920133;28;45463;-77
2022/11/26 02:35:29;;;;;;;;;8.00;8.00;;;;;21.43;46.87;102651.16;4934763;28;45449;-78
2022/11/26 02:38:00;;;;;;;;;8.67;7.67;;;;;21.43;46.83;102661.78;4935134;28;45338;-78
2022/11/26 02:40:26;;;;;;;;;9.75;6.25;;;;;21.37;46.63;102672.88;4934611;28;45475;-78
2022/11/26 02:42:51;;;;;;;;;8.50;7.75;;;;;21.42;46.33;102670.66;4934768;28;46089;-78
2022/11/26 02:45:24;;;;;;;;;13.25;10.75;;;;;21.33;46.39;102655.59;4934658;28;45473;-78
2022/11/26 02:47:53;;;;;;;;;10.75;8.50;;;;;21.39;46.54;102674.41;4934941;28;45497;-78
2022/11/26 02:50:28;;;;;;;;;8.50;8.00;;;;;21.45;46.27;102675.72;4934902;28;45393;-78
2022/11/26 02:52:55;;;;;;;;;10.50;9.25;;;;;21.44;46.71;102671.41;4934490;28;46453;-78
2022/11/26 02:55:32;;;;;;;;;9.67;8.33;;;;;21.44;46.77;102662.59;4934246;28;45430;-79
2022/11/26 02:57:58;;;;;;;;;7.75;7.25;;;;;21.39;46.64;102655.88;4935198;28;45481;-78
2022/11/26 03:00:23;;;;;;;;;7.00;7.00;;;;;21.45;46.39;102674.88;4966531;28;45479;-78
2022/11/26 03:02:53;;;;;;;;;6.50;6.50;;;;;21.46;46.48;102665.97;5018354;28;46230;-79
2022/11/26 03:05:18;;;;;;;;;10.50;8.75;;;;;21.32;46.51;102646.78;5018508;28;45453;-78
2022/11/26 03:07:47;;;;;;;;;11.00;10.50;;;;;21.42;46.25;102649.47;5017918;28;45375;-78
2022/11/26 03:10:13;;;;;;;;;7.00;5.33;;;;;21.45;46.86;102661.63;5018375;28;45355;-78
2022/11/26 03:12:38;;;;;;;;;9.00;7.75;;;;;;;;5018247;28;46968;-78
2022/11/26 03:15:04;;;;;;;;;5.75;5.75;;;;;21.44;46.78;102654.66;5018421;28;45435;-79
2022/11/26 03:17:29;;;;;;;;;7.67;6.67;;;;;21.43;46.82;102664.41;5018438;28;45517;-79
2022/11/26 03:19:54;;;;;;;;;9.33;5.00;;;;;20.96;46.55;102584.44;5018731;28;45388;-78
2022/11/26 03:22:20;;;;;;;;;7.25;7.25;;;;;21.34;46.29;102649.31;4999985;28;47100;-78
2022/11/26 03:24:49;;;;;;;;;6.50;6.25;;;;;21.36;46.27;102661.47;5018091;28;45457;-78
2022/11/26 03:27:18;;;;;;;;;7.25;6.25;;;;;21.34;46.88;102652.78;5018429;28;45506;-78
2022/11/26 03:29:46;;;;;;;;;7.50;6.50;;;;;21.20;46.24;102635.44;5018114;28;45339;-77
2022/11/26 03:32:11;;;;;;;;;9.25;8.00;;;;;21.21;46.56;102633.66;5017969;28;45405;-78
2022/11/26 03:34:36;;;;;;;;;7.25;7.00;;;;;21.40;46.37;102665.50;5017764;28;47131;-78
2022/11/26 03:37:02;;;;;;;;;6.75;5.00;;;;;21.39;46.68;102663.81;5017915;28;45400;-78
2022/11/26 03:39:27;;;;;;;;;10.00;7.00;;;;;21.34;46.73;102646.69;5018121;28;45423;-78
2022/11/26 03:41:52;;;;;;;;;10.00;9.00;;;;;21.27;46.44;102641.06;5017920;28;45498;-78
2022/11/26 03:44:18;;;;;;;;;11.00;8.00;;;;;21.38;46.47;102651.56;5017989;28;45363;-77
2022/11/26 03:46:43;;;;;;;;;8.50;8.50;;;;;21.30;46.62;102638.16;5017980;28;45351;-78
2022/11/26 03:49:08;;;;;;;;;6.50;6.00;;;;;21.38;46.36;102656.03;5017731;28;45395;-78
2022/11/26 03:51:34;;;;;;;;;9.75;8.25;;;;;21.38;46.23;102658.69;5017357;28;48489;-78
2022/11/26 03:53:59;;;;;;;;;7.50;6.25;;;;;21.35;46.24;102645.69;5027159;28;45450;-78
2022/11/26 03:56:25;;;;;;;;;8.25;6.50;;;;;21.35;46.29;102637.75;5037821;28;45339;-78
2022/11/26 03:58:50;;;;;;;;;6.00;6.00;;;;;21.09;46.33;102606.41;5037169;28;45484;-78
2022/11/26 04:01:15;;;;;;;;;6.33;6.33;;;;;21.35;46.29;102649.19;5037540;28;46086;-78
2022/11/26 04:03:41;;;;;;;;;6.67;6.00;;;;;21.34;46.55;102651.97;5037810;28;45363;-78
2022/11/26 04:06:06;;;;;;;;;9.75;7.00;;;;;21.36;46.45;102647.38;5037165;28;45280;-78
2022/11/26 04:08:32;;;;;;;;;9.50;9.00;;;;;21.35;46.01;102651.00;5037670;28;45335;-79
2022/11/26 04:10:58;;;;;;;;;8.50;7.50;;;;;21.35;46.10;102653.63;5036389;28;45288;-78
2022/11/26 04:13:23;;;;;;;;;4.75;4.50;;;;;21.35;46.33;102645.69;5037373;28;45499;-78
2022/11/26 04:15:49;;;;;;;;;8.50;8.50;;;;;21.25;46.29;102621.81;5037610;28;45371;-78
2022/11/26 04:18:14;;;;;;;;;0.00;0.00;;;;;21.32;46.16;102628.25;5037565;28;45483;-78
2022/11/26 04:20:40;;;;;;;;;7.67;6.33;;;;;21.20;46.41;102613.44;5036982;28;46204;-78
2022/11/26 04:23:05;;;;;;;;;7.33;6.67;;;;;21.36;46.48;102658.81;5037328;28;45358;-78
2022/11/26 04:25:31;;;;;;;;;5.00;2.00;;;;;21.29;46.30;102647.91;5037368;28;45577;-78
2022/11/26 04:27:56;;;;;;;;;9.67;6.00;;;;;21.27;45.97;102646.34;5037302;28;45338;-77
2022/11/26 04:30:22;;;;;;;;;6.00;5.33;;;;;21.36;46.35;102658.81;5037134;28;46192;-78
2022/11/26 04:32:47;;;;;;;;;9.25;7.00;;;;;21.27;46.48;102627.81;5037117;28;45326;-79
2022/11/26 04:35:13;;;;;;;;;7.00;6.50;;;;;21.36;46.43;102639.44;5036779;28;45406;-78
2022/11/26 04:37:38;;;;;;;;;9.25;5.25;;;;;21.24;46.13;102620.97;5037317;28;45389;-78
2022/11/26 04:40:04;;;;;;;;;7.00;5.00;;;;;21.33;45.89;102639.69;5018971;28;47086;-78
2022/11/26 04:42:29;;;;;;;;;8.25;6.50;;;;;21.22;46.28;102624.72;5037018;28;45346;-78
2022/11/26 04:44:55;;;;;;;;;7.25;6.25;;;;;21.38;46.34;102654.22;5036875;28;45386;-77
2022/11/26 04:47:20;;;;;;;;;7.75;6.00;;;;;21.39;45.98;102663.00;5036919;28;45422;-78
2022/11/26 04:49:45;;;;;;;;;5.33;4.00;;;;;21.35;46.32;102658.94;5018587;28;47238;-78
2022/11/26 04:52:10;;;;;;;;;7.33;5.67;;;;;21.38;45.83;102669.25;5036840;28;45417;-78
2022/11/26 04:54:36;;;;;;;;;7.00;6.00;;;;;21.37;46.32;102670.22;5036715;28;45430;-78
2022/11/26 04:57:01;;;;;;;;;7.25;6.25;;;;;21.38;46.42;102677.22;5036793;28;45465;-78
2022/11/26 04:59:27;;;;;;;;;6.00;6.00;;;;;21.37;46.29;102672.88;5018440;28;45818;-78
2022/11/26 05:01:52;;;;;;;;;8.33;7.67;;;;;21.32;45.82;102673.28;5036650;28;45436;-78
2022/11/26 05:04:19;;;;;;;;;9.00;6.50;;;;;21.36;45.97;102684.44;5036531;28;45287;-78
2022/11/26 05:06:44;;;;;;;;;5.75;5.75;;;;;21.34;45.97;102678.44;5036660;28;45226;-78
2022/11/26 05:09:09;;;;;;;;;6.00;6.00;;;;;21.36;46.33;102681.81;5036448;28;46282;-78
2022/11/26 05:11:35;;;;;;;;;9.00;7.00;;;;;21.34;46.17;102684.56;5036398;28;45294;-78
2022/11/26 05:14:00;;;;;;;;;9.00;8.00;;;;;21.34;45.89;102684.56;5036801;28;45289;-78
2022/11/26 05:16:25;;;;;;;;;7.25;7.25;;;;;21.35;45.90;102682.75;5036516;28;45280;-80
2022/11/26 05:18:51;;;;;;;;;6.33;6.33;;;;;21.33;45.90;102687.34;5035973;28;46124;-78
2022/11/26 05:21:16;;;;;;;;;7.75;7.00;;;;;21.33;46.42;102685.56;5036123;28;45451;-78
2022/11/26 05:23:41;;;;;;;;;6.00;5.33;;;;;21.33;46.27;102695.28;5018625;28;45416;-78
2022/11/26 05:26:07;;;;;;;;;8.00;6.25;;;;;21.29;46.26;102684.97;5036358;28;45299;-78
2022/11/26 05:28:32;;;;;;;;;8.00;6.00;;;;;21.31;45.98;102690.16;5018189;28;46036;-78
2022/11/26 05:31:00;;;;;;;;;6.50;6.25;;;;;21.27;46.48;102681.59;5036170;28;45409;-78
2022/11/26 05:33:26;;;;;;;;;7.25;7.25;;;;;21.32;46.17;102688.31;5036037;28;45375;-79
2022/11/26 05:35:51;;;;;;;;;4.50;4.50;;;;;21.32;45.89;102688.31;5018288;28;45278;-79
2022/11/26 05:38:16;;;;;;;;;4.75;4.75;;;;;21.29;46.33;102703.50;5035622;28;52237;-76
2022/11/26 05:40:42;;;;;;;;;7.50;6.75;;;;;21.31;46.36;102713.13;5035942;28;45476;-77
2022/11/26 05:43:07;;;;;;;;;6.00;6.00;;;;;21.26;46.25;102710.88;5036210;28;45277;-77
2022/11/26 05:45:32;;;;;;;;;7.25;5.25;;;;;21.21;46.26;102700.66;5036120;28;45395;-79
2022/11/26 05:47:58;;;;;;;;;7.00;6.00;;;;;21.29;46.22;102718.53;5035520;28;45993;-79
2022/11/26 05:50:23;;;;;;;;;5.00;5.00;;;;;21.28;46.48;102717.72;5035893;28;45380;-79
2022/11/26 05:52:48;;;;;;;;;7.50;7.25;;;;;21.29;46.18;102718.53;5036008;28;45369;-79
2022/11/26 05:55:15;;;;;;;;;9.25;6.75;;;;;21.28;46.41;102733.59;5035818;28;45514;-79
2022/11/26 05:57:41;;;;;;;;;5.50;5.50;;;;;21.29;45.99;102755.59;5035666;28;47101;-80
2022/11/26 06:00:08;;;;;;;;;8.00;5.25;;;;;21.30;46.16;102746.69;5035274;28;45375;-79
2022/11/26 06:02:33;;;;;;;;;7.00;7.00;;;;;21.23;46.17;102729.66;5035726;28;45377;-79
2022/11/26 06:04:58;;;;;;;;;8.00;6.00;;;;;21.30;45.83;102730.81;5035734;28;45441;-77
2022/11/26 06:07:24;;;;;;;;;7.00;7.00;;;;;21.26;46.20;102729.41;5035686;28;46180;-78
2022/11/26 06:09:49;;;;;;;;;7.75;7.00;;;;;21.31;45.73;102724.56;5035627;28;45307;-76
2022/11/26 06:12:14;;;;;;;;;6.00;6.00;;;;;21.31;45.79;102724.56;5035719;28;45590;-76
2022/11/26 06:14:40;;;;;;;;;8.00;7.25;;;;;21.32;45.93;102717.44;5035915;28;45406;-78
2022/11/26 06:17:05;;;;;;;;;8.00;6.25;;;;;21.18;46.27;102687.69;5035250;28;45382;-78
2022/11/26 06:19:30;;;;;;;;;6.67;5.33;;;;;21.26;45.60;102695.81;5035696;28;45400;-78
2022/11/26 06:21:56;;;;;;;;;6.00;5.00;;;;;21.31;45.92;102699.88;5017467;28;45415;-78
2022/11/26 06:24:21;;;;;;;;;9.25;7.75;;;;;21.28;46.06;102688.59;5035514;28;45416;-78
2022/11/26 06:26:46;;;;;;;;;5.75;5.00;;;;;21.28;45.77;102695.69;5035305;28;45921;-78
2022/11/26 06:29:12;;;;;;;;;8.50;7.50;;;;;21.22;45.90;102682.97;5035309;28;45414;-77
2022/11/26 06:31:37;;;;;;;;;7.75;6.00;;;;;21.21;45.76;102681.31;5035289;28;45296;-78
2022/11/26 06:34:03;;;;;;;;;7.75;7.00;;;;;21.34;45.96;102707.56;5037791;28;45378;-78
2022/11/26 06:36:28;;;;;;;;;9.00;6.00;;;;;21.30;45.68;102696.41;5038751;28;45907;-78
2022/11/26 06:38:53;;;;;;;;;6.75;6.00;;;;;21.32;45.88;102694.44;5038984;28;45516;-78
2022/11/26 06:41:19;;;;;;;;;6.00;6.00;;;;;21.18;45.91;102683.22;5039040;28;45288;-77
2022/11/26 06:43:44;;;;;;;;;5.00;4.25;;;;;21.23;45.86;102688.16;5038950;28;45610;-77
2022/11/26 06:46:11;;;;;;;;;7.00;6.00;;;;;21.24;46.09;102681.88;5038359;28;45370;-78
2022/11/26 06:48:37;;;;;;;;;6.00;5.25;;;;;21.31;46.10;102684.00;5038539;28;45335;-77
2022/11/26 06:51:12;;;;;;;;;3.50;3.50;;;;;21.28;45.70;102677.16;5038855;28;45401;-78
2022/11/26 06:53:38;;;;;;;;;5.67;5.67;;;;;21.29;45.78;102679.66;5038528;28;45368;-78
2022/11/26 06:56:06;;;;;;;;;5.00;5.00;;;;;21.28;45.96;102674.50;5038399;28;46141;-78
2022/11/26 06:58:32;;;;;;;;;7.75;5.50;;;;;21.27;45.75;102675.47;5038367;28;45632;-78
2022/11/26 07:00:58;;;;;;;;;7.00;5.00;;;;;21.29;45.75;102670.88;5038243;28;45414;-77
2022/11/26 07:03:24;;;;;;;;;6.50;6.50;;;;;21.25;45.61;102669.47;5038661;28;45414;-78
2022/11/26 07:05:50;;;;;;;;;5.00;5.00;;;;;21.21;45.95;102671.53;5038411;28;46146;-77
2022/11/26 07:08:15;;;;;;;;;7.00;6.00;;;;;21.24;45.77;102692.44;5038217;28;45353;-78
2022/11/26 07:10:41;;;;;;;;;5.67;5.33;;;;;21.24;45.73;102695.09;5038540;28;45360;-78
2022/11/26 07:13:06;;;;;;;;;6.75;6.75;;;;;21.26;46.23;102709.03;5038511;28;45602;-78
2022/11/26 07:15:31;;;;;;;;;6.25;6.25;;;;;21.18;45.85;102693.00;5037803;28;53147;-78
2022/11/26 07:17:58;;;;;;;;;6.25;5.00;;;;;21.24;45.63;102702.19;5038217;28;45342;-77
2022/11/26 07:20:23;;;;;;;;;9.00;5.50;;;;;21.24;46.06;102704.84;5038363;28;45411;-77
2022/11/26 07:22:49;;;;;;;;;6.00;6.00;;;;;21.24;45.87;102718.94;5038241;28;45374;-78
2022/11/26 07:25:15;;;;;;;;;4.75;4.50;;;;;21.23;45.70;102725.22;5020130;28;47112;-78
2022/11/26 07:27:41;;;;;;;;;8.00;6.00;;;;;21.21;46.04;102705.94;5038217;28;45354;-78
2022/11/26 07:30:08;;;;;;;;;6.25;5.00;;;;;21.24;45.62;102708.34;5037698;28;45285;-78
2022/11/26 07:32:33;;;;;;;;;4.67;4.33;;;;;21.18;46.02;102708.88;5038147;28;45427;-78
2022/11/26 07:34:59;;;;;;;;;8.00;5.50;;;;;21.11;45.62;102703.22;5037844;28;47234;-78
2022/11/26 07:37:24;;;;;;;;;5.00;4.75;;;;;21.16;46.11;102705.50;5037840;28;45320;-78
2022/11/26 07:39:50;;;;;;;;;5.50;4.75;;;;;21.17;45.75;102718.63;5037977;28;45319;-78
2022/11/26 07:42:15;;;;;;;;;6.50;6.50;;;;;21.22;45.80;102710.28;5037975;28;46187;-77
2022/11/26 07:44:40;;;;;;;;;7.50;6.25;;;;;21.17;45.60;102712.47;5037340;28;46029;-77
2022/11/26 07:47:06;;;;;;;;;5.25;4.25;;;;;21.25;46.06;102728.56;5037796;28;45452;-77
2022/11/26 07:49:31;;;;;;;;;5.25;4.00;;;;;21.20;45.80;102727.25;5037942;28;45582;-77
2022/11/26 07:51:56;;;;;;;;;4.00;2.00;;;;;21.25;45.92;102731.22;5037840;28;45521;-79
2022/11/26 07:54:22;;;;;;;;;5.25;5.25;;;;;21.14;45.46;102712.72;5037439;28;47253;-78
2022/11/26 07:56:47;;;;;;;;;4.67;4.00;;;;;21.26;45.88;102735.50;5019713;28;45897;-78
2022/11/26 07:59:12;;;;;;;;;4.00;4.00;;;;;20.98;46.00;102690.16;5037190;28;45330;-78
2022/11/26 08:01:38;;;;;;;;;6.00;6.00;;;;;21.27;45.39;102747.78;5037765;28;45402;-78
2022/11/26 08:04:05;;;;;;;;;5.75;4.75;;;;;21.23;45.63;102734.94;5037448;28;46425;-77
2022/11/26 08:06:31;;;;;;;;;5.67;5.00;;;;;21.22;45.47;102726.16;5037532;28;45393;-78
2022/11/26 08:08:59;;;;;;;;;6.00;5.75;;;;;21.12;45.89;102712.03;5019732;28;45392;-77
2022/11/26 08:11:27;;;;;;;;;6.33;5.00;;;;;21.29;45.58;102743.22;5037397;28;45565;-78
2022/11/26 08:13:58;;;;;;;;;6.75;5.00;;;;;21.29;45.58;102745.84;5037090;28;45393;-78
2022/11/26 08:16:24;;;;;;;;;4.50;4.50;;;;;21.24;45.73;102732.16;5037280;28;45432;-77
2022/11/26 08:18:53;;;;;;;;;5.33;4.33;;;;;21.27;45.75;102750.44;5037428;28;45358;-78
2022/11/26 08:21:19;;;;;;;;;5.00;4.25;;;;;21.28;45.77;102746.84;5037339;28;45393;-77
2022/11/26 08:23:45;;;;;;;;;8.50;6.00;;;;;21.28;45.99;102748.63;5036988;28;47340;-78
2022/11/26 08:26:13;;;;;;;;;6.00;4.00;;;;;21.28;45.85;102759.22;5036968;28;45539;-77
2022/11/26 08:28:38;;;;;;;;;4.33;4.33;;;;;21.13;45.49;102737.53;5036966;28;45279;-76
2022/11/26 08:31:06;;;;;;;;;3.75;3.75;;;;;21.27;45.92;102760.19;5037329;28;45398;-77
2022/11/26 08:33:32;;;;;;;;;6.00;4.50;;;;;21.26;46.00;102762.00;5037059;28;46441;-77
2022/11/26 08:35:58;;;;;;;;;4.75;4.50;;;;;21.10;45.57;102732.50;5036955;28;45426;-76
2022/11/26 08:38:25;;;;;;;;;6.75;6.00;;;;;20.90;45.75;102698.72;5037125;28;45372;-78
2022/11/26 08:40:50;;;;;;;;;5.75;5.50;;;;;21.24;45.71;102753.34;5037013;28;45509;-77
2022/11/26 08:43:15;;;;;;;;;4.50;4.50;;;;;21.23;45.52;102745.53;5036443;28;47095;-78
2022/11/26 08:45:41;;;;;;;;;7.00;7.00;;;;;21.24;45.90;102744.56;5036894;28;45396;-77
2022/11/26 08:48:06;;;;;;;;;5.00;5.00;;;;;21.22;45.67;102733.25;5036985;28;45470;-78
2022/11/26 08:50:32;;;;;;;;;4.00;4.00;;;;;21.23;45.81;102724.34;5036899;28;45355;-76
2022/11/26 08:52:58;;;;;;;;;9.33;5.67;;;;;21.23;45.73;102713.78;5018800;28;47073;-76
2022/11/26 08:55:23;;;;;;;;;6.25;6.25;;;;;21.17;45.48;102715.13;5036175;28;45578;-78
2022/11/26 08:57:48;;;;;;;;;5.67;4.00;;;;;21.22;45.56;102728.81;5036391;28;45280;-77
2022/11/26 09:00:14;;;;;;;;;4.00;4.00;;;;;21.19;45.49;102723.78;5036236;28;45505;-78
2022/11/26 09:02:39;;;;;;;;;5.00;4.75;;;;;21.10;45.58;102714.81;5036638;28;46125;-78
2022/11/26 09:05:05;;;;;;;;;4.00;4.00;;;;;21.21;45.89;102727.13;5036650;28;45316;-80
2022/11/26 09:07:30;;;;;;;;;8.50;6.50;;;;;21.05;45.49;102711.72;5036873;28;45437;-75
2022/11/26 09:09:56;;;;;;;;;5.50;5.50;;;;;21.21;45.96;102723.66;5036657;28;45365;-77
2022/11/26 09:12:21;;;;;;;;;5.25;4.50;;;;;21.21;45.44;102718.38;5036060;28;45933;-74
2022/11/26 09:14:46;;;;;;;;;6.75;4.75;;;;;21.23;45.76;102714.63;5036269;28;45418;-72
2022/11/26 09:17:12;;;;;;;;;5.50;4.00;;;;;21.23;45.74;102713.78;5018827;28;45418;-74
2022/11/26 09:19:37;;;;;;;;;5.33;4.00;;;;;21.18;45.68;102712.34;5036482;28;45449;-75
2022/11/26 09:22:02;;;;;;;;;5.00;4.00;;;;;21.13;45.88;102703.13;5036340;28;45413;-75
2022/11/26 09:24:28;;;;;;;;;5.00;4.00;;;;;21.29;45.83;102726.47;5036348;28;45346;-73
2022/11/26 09:26:53;;;;;;;;;6.75;5.50;;;;;21.27;44.84;102737.19;5036233;28;45429;-72
2022/11/26 09:29:21;;;;;;;;;7.33;5.33;;;;;21.18;44.57;102717.63;5036266;28;45447;-72
2022/11/26 09:31:47;;;;;;;;;6.33;6.00;;;;;21.22;44.64;102720.88;5036146;28;47130;-71
2022/11/26 09:34:14;;;;;;;;;7.00;7.00;;;;;21.20;44.56;102711.38;5036019;28;45275;-72
2022/11/26 09:36:39;;;;;;;;;7.00;6.00;;;;;21.17;43.95;102717.78;5036238;28;45364;-76
2022/11/26 09:39:05;;;;;;;;;6.25;5.00;;;;;21.14;44.36;102720.66;5036065;28;45526;-75
2022/11/26 09:41:39;;;;;;;;;4.00;4.00;;;;;21.13;44.88;102711.06;5035621;28;46849;-83
2022/11/26 09:44:27;;;;;;;;;6.00;4.25;;;;;21.19;44.57;102715.81;5035928;28;45422;-77
2022/11/26 09:47:24;;;;;;;;;6.00;4.00;;;;;21.23;44.99;102706.69;5036077;28;45362;-78
2022/11/26 09:50:14;;;;;;;;;4.67;4.33;;;;;21.27;44.91;102700.13;5016043;28;45328;-77
2022/11/26 09:53:00;;;;;;;;;5.67;5.00;;;;;21.13;45.15;102682.75;5021133;28;46887;-73
2022/11/26 09:55:34;;;;;;;;;5.00;5.00;;;;;21.31;44.90;102690.16;5034982;28;45442;-76
2022/11/26 09:58:25;;;;;;;;;8.00;5.00;;;;;21.34;44.83;102683.75;5035623;28;45327;-75
2022/11/26 10:00:53;;;;;;;;;4.33;4.33;;;;;21.29;44.88;102670.88;5024109;28;45431;-77
2022/11/26 10:03:24;;;;;;;;;8.00;5.50;;;;;21.25;45.08;102675.63;5034923;28;47450;-75
2022/11/26 10:06:02;;;;;;;;;7.00;5.00;;;;;21.36;45.37;102690.59;5035755;28;45431;-78
2022/11/26 10:09:03;;;;;;;;;5.33;4.33;;;;;21.38;45.13;102690.44;5034399;28;45358;-77
2022/11/26 10:11:38;;;;;;;;;6.00;5.00;;;;;21.38;45.18;102690.44;5035703;28;45382;-79
2022/11/26 10:14:30;;;;;;;;;5.00;5.00;;;;;21.39;45.27;102695.59;5035223;28;45354;-78
2022/11/26 10:17:14;;;;;;;;;7.67;4.33;;;;;21.39;45.33;102694.78;5035519;28;45414;-80
2022/11/26 10:19:51;;;;;;;;;7.67;5.00;;;;;21.40;45.74;102710.53;5035833;28;45427;-76
2022/11/26 10:22:25;;;;;;;;;6.33;6.33;;;;;21.42;45.28;102712.22;5035458;28;45379;-76
2022/11/26 10:24:51;;;;;;;;;7.33;5.67;;;;;21.42;45.61;102704.28;5034852;28;45463;-72
2022/11/26 10:27:19;;;;;;;;;7.67;6.00;;;;;21.35;45.15;102696.84;5035462;28;45425;-74
2022/11/26 10:29:53;;;;;;;;;5.67;4.67;;;;;21.37;44.87;102696.69;5035486;28;45369;-74
2022/11/26 10:32:38;;;;;;;;;5.00;5.00;;;;;21.36;45.22;102677.34;5035383;28;45565;-73
2022/11/26 10:35:04;;;;;;;;;7.00;7.00;;;;;21.28;45.08;102653.34;5035094;28;47335;-74
2022/11/26 10:37:30;;;;;;;;;4.67;4.67;;;;;21.44;45.25;102686.44;5034708;28;45359;-74
2022/11/26 10:40:14;;;;;;;;;7.00;4.00;;;;;;;;5035331;28;45346;-72
2022/11/26 10:42:42;;;;;;;;;8.67;4.00;;;;;21.44;45.28;102686.44;5035451;28;45576;-73
2022/11/26 10:45:36;;;;;;;;;5.67;4.33;;;;;21.43;44.93;102672.34;5034373;28;48130;-73
2022/11/26 10:48:27;;;;;;;;;7.33;3.67;;;;;21.44;45.03;102670.56;5023606;28;45360;-73
2022/11/26 10:50:58;;;;;;;;;7.33;5.00;;;;;;;;5035130;28;45509;-73
2022/11/26 10:53:26;;;;;;;;;8.00;4.00;;;;;21.42;45.28;102691.03;5034646;28;45485;-73
2022/11/26 10:55:56;;;;;;;;;5.67;5.67;;;;;21.33;45.51;102674.97;5034832;28;46414;-73
2022/11/26 10:58:26;;;;;;;;;4.67;4.67;;;;;21.42;45.41;102683.91;5034830;28;45664;-73
2022/11/26 11:01:02;;;;;;;;;3.67;3.67;;;;;21.31;45.17;102679.56;5034894;28;45513;-73
2022/11/26 11:03:38;;;;;;;;;5.33;4.33;;;;;21.42;44.82;102706.94;5034923;28;45579;-73
2022/11/26 11:06:18;;;;;;;;;5.67;4.00;;;;;21.42;45.29;102702.44;5034685;28;46407;-73
2022/11/26 11:08:48;;;;;;;;;7.00;5.50;;;;;21.42;45.05;102699.78;5034748;28;45408;-74
2022/11/26 11:11:27;;;;;;;;;5.00;5.00;;;;;;;;5034990;28;45313;-73
2022/11/26 11:13:53;;;;;;;;;7.33;5.00;;;;;21.32;45.18;102681.22;5034760;28;45499;-73
2022/11/26 11:16:41;;;;;;;;;5.33;5.00;;;;;21.42;45.28;102697.16;5034636;28;46375;-73
2022/11/26 11:19:19;;;;;;;;;5.33;4.00;;;;;;;;5035477;28;45407;-73
2022/11/26 11:21:44;;;;;;;;;5.33;4.00;;;;;21.40;44.93;102681.41;5038170;28;45422;-73
2022/11/26 11:24:15;;;;;;;;;6.00;5.33;;;;;21.43;44.98;102675.00;5038039;28;45365;-73
2022/11/26 11:26:44;;;;;;;;;5.67;4.00;;;;;21.40;45.45;102673.47;5038079;28;45314;-71
2022/11/26 11:29:42;;;;;;;;;5.33;5.00;;;;;21.42;45.11;102686.56;5038038;28;45418;-73
2022/11/26 11:32:35;;;;;;;;;5.33;5.33;;;;;21.42;45.51;102691.03;4937488;28;45401;-73
2022/11/26 11:35:19;;;;;;;;;5.67;5.67;;;;;21.33;45.26;102682.06;4921287;28;45402;-72